Sidman, Pennsylvania
Current Conditions -  °F | °C
As of 6:54 PM on Tuesday 25 Nov 2014 (Local Time) from KJST Reporting Station
Clear Clear  
Wind Chill: 32°   Ceiling: Unl
Heat Index: 39°   Visibility: 10mi
Dew Point: 25°   Wind: 12mph
Humidity: 57%   Direction: 280°W
Pressure: 30.07"   Gusts: NA
Location:  40.33°N, 78.74°W
Report Text: KJST 252354Z AUTO 28010KT 10SM CLR 04/M04 A3007 RMK AO2 SLP199 T00391039 10072 20039 53023
Loading
Personal Weather Stations






























Interactive Weather Map New forecast layout! Learn more

10-Day Weather Forecast

Advertisements
Track Severe Weather on mobile